Portada
METAR-TAF:

METAR-TAF

Aeroports :

Doha, Qatar

latitud: 25-15-40N, longitud: 051-33-54E, altitud: 11 m

Observació

L'informe es va fer fa 21 minuts, a les 11:00 UTC
Vent 10 kt del Nord
Temperatura 29°C
Humitat 31%
Pressió 1016 hPa
Visibilitat 10 km o més
Escasses núvols a una alçada de 3000 ft

METAR: OTBD 141100Z 01010KT 9999 FEW030 29/10 Q1016 NOSIG

Hora: 14:21 (11:21 UTC)

Pronòstic

L'informe es va fer fa 6 hores i 20 minuts, a les 05:01 UTC
Pronòstic vàlid del 14 a les 06 UTC al 15 a les 12 UTC
Vent 5 kt del Nord/Nord-Oest
Visibilitat 10 km o més
sense núvols per sota de 1500 mi sense presència de cumulonimbus.
Temporalment
l' 14 a les 10 UTC al 14 a les 16 UTC
Vent 8 kt del Est/Nord-Est
Evolucionant progressivament
l' 15 a les 01 UTC al 15 a les 03 UTC
Vent 5 kt del Oest

TAF: OTBD 140501Z 1406/1512 33005KT CAVOK TEMPO 1410/1416 06008KT BECMG 1501/1503 26005KT

Observacions i pronòstics meteorològics de més de 4000 aeroports (METAR i TAF).

Les estacions disponibles són els punts grocs i vermells al mapa.

Posi el ratolí al punt desitjat per veure el nom de l'estació.

Feu clic per veure les observacions i els pronòstics meteorològics.

Per canviar el mapa: feu clic els botons verds amb una creu de color negre per apropar; al botó verd amb un guió per allunyar la imatge; o en les fletxes verdes per a mapes adjacents.


METAR-TAF: